createdAt,value
2023-03-26T00:01:41.828Z,99209.09
2023-03-26T00:04:31.197Z,99210.81
2023-03-26T00:07:09.980Z,99211.41
2023-03-26T00:09:55.187Z,99217.44
2023-03-26T00:12:33.262Z,99210.63
2023-03-26T00:15:12.192Z,99207.41
2023-03-26T00:17:54.337Z,99200.56
2023-03-26T00:20:41.345Z,99197.66
2023-03-26T00:23:19.049Z,99205.91
2023-03-26T00:26:05.271Z,99194.97
2023-03-26T00:28:48.378Z,99191.09
2023-03-26T00:31:41.243Z,99193.34
2023-03-26T00:34:22.067Z,99201.63
2023-03-26T00:37:02.861Z,99201.03
2023-03-26T00:39:49.628Z,99199.81
2023-03-26T00:42:23.151Z,99200.44
2023-03-26T00:45:06.470Z,99201.66
2023-03-26T00:47:49.704Z,99206.41
2023-03-26T00:50:38.897Z,99203.47
2023-03-26T00:53:19.001Z,99214.78
2023-03-26T00:56:03.309Z,99214.56
2023-03-26T00:58:38.678Z,99205.31
2023-03-26T01:01:32.776Z,99208.41
2023-03-26T01:04:28.467Z,99201.38
2023-03-26T01:07:19.893Z,99203.19
2023-03-26T01:09:58.181Z,99198.34
2023-03-26T01:12:38.086Z,99187.41
2023-03-26T01:15:21.811Z,99194.50
2023-03-26T01:18:05.485Z,99188.72
2023-03-26T01:20:52.982Z,99178.78
2023-03-26T01:23:47.404Z,99181.72
2023-03-26T01:26:41.651Z,99187.47
2023-03-26T01:29:32.058Z,99194.69
2023-03-26T01:32:38.062Z,99192.22
2023-03-26T01:35:49.096Z,99186.25
2023-03-26T01:38:41.877Z,99188.59
2023-03-26T01:41:25.372Z,99180.28
2023-03-26T01:44:29.754Z,99187.72
2023-03-26T01:47:05.446Z,99184.59
2023-03-26T01:49:51.653Z,99181.72
2023-03-26T01:52:35.005Z,99180.09
2023-03-26T01:55:17.318Z,99178.84
2023-03-26T01:58:22.566Z,99179.03
2023-03-26T02:01:27.519Z,99179.25
2023-03-26T02:04:14.980Z,99179.84
2023-03-26T02:07:38.567Z,99178.66
2023-03-26T02:10:37.425Z,99187.13
2023-03-26T02:13:16.315Z,99186.31
2023-03-26T02:16:14.819Z,99200.13
2023-03-26T02:18:56.118Z,99194.97
2023-03-26T02:21:43.846Z,99203.25
2023-03-26T02:24:22.405Z,99198.69
2023-03-26T02:27:03.527Z,99205.31
2023-03-26T02:29:42.646Z,99204.66
2023-03-26T02:32:22.837Z,99207.81
2023-03-26T02:35:10.955Z,99213.19
2023-03-26T02:37:47.011Z,99209.91
2023-03-26T02:40:37.120Z,99211.78
2023-03-26T02:43:19.166Z,99199.56
2023-03-26T02:46:03.809Z,99200.16
2023-03-26T02:49:06.169Z,99204.03
2023-03-26T02:51:56.455Z,99203.91
2023-03-26T02:54:40.261Z,99199.97
2023-03-26T02:57:35.979Z,99194.19
2023-03-26T03:00:22.909Z,99195.84
2023-03-26T03:03:37.442Z,99192.53
2023-03-26T03:06:38.555Z,99190.94
2023-03-26T03:09:17.525Z,99190.56
2023-03-26T03:11:58.102Z,99187.25
2023-03-26T03:14:40.895Z,99192.63
2023-03-26T03:17:22.150Z,99191.00
2023-03-26T03:20:02.162Z,99198.03
2023-03-26T03:22:49.330Z,99188.13
2023-03-26T03:25:32.692Z,99185.63
2023-03-26T03:28:16.314Z,99193.91
2023-03-26T03:30:59.934Z,99199.03
2023-03-26T03:33:55.910Z,99194.06
2023-03-26T03:36:38.715Z,99193.38
2023-03-26T03:39:40.729Z,99195.41
2023-03-26T03:42:28.037Z,99179.69
2023-03-26T03:45:17.180Z,99190.84
2023-03-26T03:48:26.362Z,99194.91
2023-03-26T03:51:14.712Z,99188.06
2023-03-26T03:54:12.098Z,99196.16
2023-03-26T03:57:09.509Z,99199.44
2023-03-26T03:59:55.277Z,99201.88
2023-03-26T04:02:45.450Z,99207.69
2023-03-26T04:05:41.148Z,99208.69
2023-03-26T04:08:30.485Z,99213.88
2023-03-26T04:11:05.945Z,99207.06
2023-03-26T04:14:08.718Z,99204.81
2023-03-26T04:17:18.014Z,99197.44
2023-03-26T04:20:16.702Z,99193.34
2023-03-26T04:23:14.152Z,99197.25
2023-03-26T04:26:07.069Z,99198.44
2023-03-26T04:29:17.946Z,99200.66
2023-03-26T04:32:06.839Z,99208.44
2023-03-26T04:34:47.638Z,99208.81
2023-03-26T04:37:34.474Z,99211.91
2023-03-26T04:40:42.884Z,99210.38
2023-03-26T04:43:29.242Z,99204.63
2023-03-26T04:46:24.133Z,99215.09
2023-03-26T04:49:16.755Z,99218.56
2023-03-26T04:52:04.085Z,99209.84
2023-03-26T04:55:09.044Z,99224.84
2023-03-26T04:58:00.781Z,99215.19
2023-03-26T05:01:01.179Z,99214.97
2023-03-26T05:03:58.202Z,99216.97
2023-03-26T05:06:38.544Z,99223.06
2023-03-26T05:09:32.637Z,99224.56
2023-03-26T05:12:42.844Z,99223.34
2023-03-26T05:15:27.610Z,99219.50
2023-03-26T05:18:06.399Z,99217.47
2023-03-26T05:20:56.867Z,99217.47
2023-03-26T05:23:40.770Z,99222.25
2023-03-26T05:26:36.991Z,99220.63
2023-03-26T05:29:24.236Z,99218.22
2023-03-26T05:32:15.945Z,99218.28
2023-03-26T05:34:59.647Z,99217.09
2023-03-26T05:37:44.606Z,99216.50
2023-03-26T05:40:31.406Z,99211.63
2023-03-26T05:43:16.173Z,99195.97
2023-03-26T05:46:20.470Z,99198.03
2023-03-26T05:48:54.226Z,99200.69
2023-03-26T05:51:43.127Z,99197.28
2023-03-26T05:54:45.060Z,99198.09
2023-03-26T05:57:45.289Z,99200.56
2023-03-26T06:00:48.896Z,99203.19
2023-03-26T06:03:37.604Z,99204.25
2023-03-26T06:06:33.290Z,99207.28
2023-03-26T06:09:19.705Z,99198.97
2023-03-26T06:12:03.863Z,99197.06
2023-03-26T06:14:47.623Z,99203.09
2023-03-26T06:17:36.478Z,99191.16
2023-03-26T06:20:31.130Z,99191.59
2023-03-26T06:23:12.400Z,99184.97
2023-03-26T06:25:58.293Z,99192.25
2023-03-26T06:28:58.199Z,99200.13
2023-03-26T06:32:18.407Z,99205.28
2023-03-26T06:35:01.575Z,99211.47
2023-03-26T06:37:45.692Z,99212.81
2023-03-26T06:40:29.399Z,99201.47
2023-03-26T06:43:27.352Z,99205.00
2023-03-26T06:46:14.497Z,99208.84
2023-03-26T06:49:18.487Z,99206.56
2023-03-26T06:52:20.963Z,99209.53
2023-03-26T06:55:14.283Z,99211.06
2023-03-26T06:58:19.474Z,99218.97
2023-03-26T07:01:15.530Z,99216.84
2023-03-26T07:04:09.718Z,99211.09
2023-03-26T07:07:15.545Z,99206.66
2023-03-26T07:10:19.047Z,99202.47
2023-03-26T07:13:37.885Z,99203.31
2023-03-26T07:16:44.282Z,99195.56
2023-03-26T07:19:54.391Z,99196.56
2023-03-26T07:22:39.294Z,99193.88
2023-03-26T07:25:23.741Z,99198.53
2023-03-26T07:29:04.851Z,99192.63
2023-03-26T07:32:42.734Z,99183.81
2023-03-26T07:36:06.286Z,99184.66
2023-03-26T07:39:09.165Z,99181.53
2023-03-26T07:42:53.846Z,99191.16
2023-03-26T07:46:06.194Z,99191.19
2023-03-26T07:49:04.856Z,99186.38
2023-03-26T07:52:05.564Z,99206.03
2023-03-26T07:55:10.226Z,99188.00
2023-03-26T07:58:27.749Z,99198.63
2023-03-26T08:01:53.610Z,99189.47
2023-03-26T08:04:45.181Z,99191.44
2023-03-26T08:08:14.135Z,99184.13
2023-03-26T08:11:25.132Z,99189.22
2023-03-26T08:14:27.594Z,99189.16
2023-03-26T08:17:40.653Z,99187.78
2023-03-26T08:20:40.011Z,99194.84
2023-03-26T08:23:50.702Z,99187.28
2023-03-26T08:26:48.113Z,99182.00
2023-03-26T08:30:04.913Z,99189.56
2023-03-26T08:32:52.586Z,99183.28
2023-03-26T08:35:34.909Z,99191.00
2023-03-26T08:38:17.142Z,99188.66
2023-03-26T08:41:19.440Z,99188.41
2023-03-26T08:44:13.723Z,99178.81
2023-03-26T08:47:40.057Z,99184.53
2023-03-26T08:50:40.617Z,99174.53
2023-03-26T08:54:05.101Z,99174.03
2023-03-26T08:56:52.399Z,99178.31
2023-03-26T09:00:06.043Z,99176.34
2023-03-26T09:06:30.163Z,99170.16
2023-03-26T09:10:09.692Z,99168.16
2023-03-26T09:13:02.000Z,99170.56
2023-03-26T09:16:16.333Z,99165.94
2023-03-26T09:19:44.902Z,99170.66
2023-03-26T09:22:52.096Z,99178.34
2023-03-26T09:25:50.118Z,99166.22
2023-03-26T09:28:57.315Z,99147.66
2023-03-26T09:31:58.061Z,99157.06
2023-03-26T09:34:49.269Z,99148.97
2023-03-26T09:37:56.719Z,99152.25
2023-03-26T09:41:12.138Z,99146.84
2023-03-26T09:44:30.214Z,99162.41
2023-03-26T09:47:41.135Z,99143.22
2023-03-26T09:50:25.440Z,99145.06
2023-03-26T09:53:23.666Z,99138.47
2023-03-26T09:56:44.680Z,99150.97
2023-03-26T09:59:41.359Z,99138.09
2023-03-26T10:02:53.999Z,99137.13
2023-03-26T10:05:57.135Z,99140.56
2023-03-26T10:08:42.738Z,99140.59
2023-03-26T10:11:41.173Z,99132.38
2023-03-26T10:14:58.089Z,99124.97
2023-03-26T10:18:01.207Z,99122.94
2023-03-26T10:20:43.250Z,99111.38
2023-03-26T10:24:02.225Z,99101.09
2023-03-26T10:27:13.613Z,99103.81
2023-03-26T10:30:18.242Z,99093.16
2023-03-26T10:33:19.667Z,99098.47
2023-03-26T10:36:25.852Z,99096.13
2023-03-26T10:39:37.863Z,99094.19
2023-03-26T10:42:35.478Z,99082.50
2023-03-26T10:45:27.144Z,99075.69
2023-03-26T10:48:42.158Z,99078.69
2023-03-26T10:51:49.490Z,99067.22
2023-03-26T10:55:00.790Z,99064.47
2023-03-26T10:57:56.266Z,99063.13
2023-03-26T11:00:44.171Z,99060.34
2023-03-26T11:03:46.714Z,99056.47
2023-03-26T11:06:35.453Z,99052.31
2023-03-26T11:10:01.237Z,99046.94
2023-03-26T11:13:06.650Z,99040.69
2023-03-26T11:16:02.360Z,99029.72
2023-03-26T11:19:05.821Z,99020.75
2023-03-26T11:21:56.762Z,99013.00
2023-03-26T11:25:05.714Z,99009.66
2023-03-26T11:28:24.787Z,99002.66
2023-03-26T11:31:03.315Z,98993.81
2023-03-26T11:33:54.944Z,98989.81
2023-03-26T11:36:38.570Z,98984.41
2023-03-26T11:39:32.806Z,98987.94
2023-03-26T11:42:23.486Z,98974.09
2023-03-26T11:45:21.682Z,98976.00
2023-03-26T11:48:15.749Z,98979.94
2023-03-26T11:51:01.669Z,98972.03
2023-03-26T11:53:51.235Z,98968.19
2023-03-26T11:57:04.639Z,98968.78
2023-03-26T12:00:10.956Z,98958.53
2023-03-26T12:02:55.160Z,98950.94
2023-03-26T12:05:57.557Z,98951.97
2023-03-26T12:08:54.123Z,98949.28
2023-03-26T12:11:41.484Z,98935.38
2023-03-26T12:14:38.435Z,98930.75
2023-03-26T12:17:51.593Z,98918.88
2023-03-26T12:20:46.756Z,98921.31
2023-03-26T12:23:53.685Z,98908.56
2023-03-26T12:26:40.480Z,98903.84
2023-03-26T12:29:27.676Z,98895.94
2023-03-26T12:32:32.490Z,98894.59
2023-03-26T12:35:32.065Z,98879.97
2023-03-26T12:39:16.812Z,98876.25
2023-03-26T12:44:43.416Z,98866.59
2023-03-26T12:45:20.939Z,98866.22
2023-03-26T12:48:05.941Z,98858.91
2023-03-26T12:51:03.632Z,98862.56
2023-03-26T12:54:02.165Z,98852.75
2023-03-26T12:57:12.624Z,98851.09
2023-03-26T13:00:47.872Z,98848.19
2023-03-26T13:03:41.979Z,98845.25
2023-03-26T13:07:02.476Z,98849.81
2023-03-26T13:10:29.113Z,98842.00
2023-03-26T13:13:31.551Z,98835.91
2023-03-26T13:16:22.876Z,98823.28
2023-03-26T13:19:41.666Z,98820.06
2023-03-26T13:22:34.724Z,98812.09
2023-03-26T13:25:34.411Z,98798.09
2023-03-26T13:28:54.760Z,98797.78
2023-03-26T13:31:59.635Z,98784.25
2023-03-26T13:35:02.210Z,98784.22
2023-03-26T13:37:57.382Z,98777.00
2023-03-26T13:41:00.985Z,98788.22
2023-03-26T13:44:13.721Z,98782.34
2023-03-26T13:46:58.334Z,98784.84
2023-03-26T13:49:54.169Z,98773.91
2023-03-26T13:52:46.435Z,98768.75
2023-03-26T13:55:44.004Z,98766.00
2023-03-26T13:58:43.360Z,98766.72
2023-03-26T14:01:45.559Z,98751.84
2023-03-26T14:04:37.054Z,98756.53
2023-03-26T14:07:27.844Z,98750.22
2023-03-26T14:10:38.143Z,98745.28
2023-03-26T14:13:26.017Z,98732.06
2023-03-26T14:16:22.136Z,98736.81
2023-03-26T14:19:19.245Z,98731.50
2023-03-26T14:22:27.117Z,98728.72
2023-03-26T14:25:51.067Z,98730.34
2023-03-26T14:28:47.333Z,98713.22
2023-03-26T14:31:45.258Z,98708.41
2023-03-26T14:34:56.603Z,98702.94
2023-03-26T14:37:53.853Z,98713.94
2023-03-26T14:41:02.309Z,98706.72
2023-03-26T14:44:11.470Z,98699.50
2023-03-26T14:47:25.793Z,98693.81
2023-03-26T14:50:36.135Z,98687.34
2023-03-26T14:53:35.383Z,98676.72
2023-03-26T14:57:12.635Z,98666.47
2023-03-26T15:00:15.077Z,98665.47
2023-03-26T15:03:12.495Z,98668.50
2023-03-26T15:06:10.069Z,98663.72
2023-03-26T15:09:28.034Z,98657.19
2023-03-26T15:12:34.481Z,98656.59
2023-03-26T15:15:31.110Z,98638.22
2023-03-26T15:18:40.478Z,98633.97
2023-03-26T15:21:41.113Z,98634.00
2023-03-26T15:24:47.296Z,98624.25
2023-03-26T15:27:55.863Z,98622.78
2023-03-26T15:30:52.302Z,98617.47
2023-03-26T15:33:57.397Z,98614.84
2023-03-26T15:37:24.999Z,98605.91
2023-03-26T15:40:47.155Z,98602.66
2023-03-26T15:44:24.389Z,98610.84
2023-03-26T15:47:29.077Z,98609.19
2023-03-26T15:50:45.130Z,98602.06
2023-03-26T15:54:25.234Z,98599.75
2023-03-26T15:57:27.612Z,98590.22
2023-03-26T16:00:35.393Z,98588.47
2023-03-26T16:03:32.624Z,98584.13
2023-03-26T16:07:15.883Z,98575.78
2023-03-26T16:10:39.307Z,98566.66
2023-03-26T16:13:42.136Z,98560.69
2023-03-26T16:16:25.314Z,98554.91
2023-03-26T16:19:24.396Z,98547.97
2023-03-26T16:22:20.101Z,98544.03
2023-03-26T16:25:26.524Z,98538.19
2023-03-26T16:28:19.098Z,98536.94
2023-03-26T16:31:45.895Z,98539.94
2023-03-26T16:34:51.375Z,98532.13
2023-03-26T16:37:51.187Z,98539.06
2023-03-26T16:40:46.946Z,98537.91
2023-03-26T16:43:50.152Z,98532.78
2023-03-26T16:46:38.556Z,98532.66
2023-03-26T16:49:47.262Z,98536.53
2023-03-26T16:53:08.184Z,98541.16
2023-03-26T16:55:57.960Z,98540.09
2023-03-26T16:58:59.324Z,98543.38
2023-03-26T17:01:57.925Z,98542.59
2023-03-26T17:04:52.322Z,98547.47
2023-03-26T17:07:46.065Z,98534.97
2023-03-26T17:10:41.780Z,98531.44
2023-03-26T17:13:25.344Z,98537.94
2023-03-26T17:16:23.839Z,98530.84
2023-03-26T17:19:32.984Z,98544.88
2023-03-26T17:22:31.098Z,98535.88
2023-03-26T17:25:25.017Z,98538.00
2023-03-26T17:28:44.395Z,98541.75
2023-03-26T17:31:55.293Z,98540.88
2023-03-26T17:35:32.661Z,98530.81
2023-03-26T17:38:24.302Z,98538.63
2023-03-26T17:41:12.495Z,98539.66
2023-03-26T17:44:04.934Z,98539.00
2023-03-26T17:46:48.524Z,98525.63
2023-03-26T17:49:38.658Z,98537.25
2023-03-26T17:52:40.883Z,98539.53
2023-03-26T17:55:26.128Z,98534.06
2023-03-26T17:58:21.608Z,98541.44
2023-03-26T18:01:11.173Z,98534.84
2023-03-26T18:04:00.868Z,98539.09
2023-03-26T18:07:04.511Z,98536.44
2023-03-26T18:09:58.692Z,98543.38
2023-03-26T18:13:09.781Z,98536.03
2023-03-26T18:16:16.103Z,98537.34
2023-03-26T18:19:05.559Z,98537.88
2023-03-26T18:21:54.959Z,98533.78
2023-03-26T18:24:40.407Z,98529.19
2023-03-26T18:27:24.914Z,98522.06
2023-03-26T18:30:18.768Z,98522.63
2023-03-26T18:33:27.307Z,98511.19
2023-03-26T18:36:11.190Z,98509.28
2023-03-26T18:39:22.034Z,98513.88
2023-03-26T18:42:03.450Z,98509.03
2023-03-26T18:44:59.766Z,98510.97
2023-03-26T18:47:56.806Z,98498.88
2023-03-26T18:50:54.781Z,98503.16
2023-03-26T18:53:53.282Z,98496.16
2023-03-26T18:56:42.131Z,98485.41
2023-03-26T18:59:45.584Z,98477.84
2023-03-26T19:02:37.280Z,98471.34
2023-03-26T19:05:27.677Z,98473.00
2023-03-26T19:08:14.192Z,98456.81
2023-03-26T19:11:03.095Z,98453.59
2023-03-26T19:13:49.789Z,98441.88
2023-03-26T19:16:43.631Z,98428.97
2023-03-26T19:19:32.025Z,98432.06
2023-03-26T19:22:25.711Z,98422.78
2023-03-26T19:25:08.015Z,98418.75
2023-03-26T19:27:54.775Z,98419.31
2023-03-26T19:30:35.966Z,98413.06
2023-03-26T19:33:26.166Z,98407.19
2023-03-26T19:36:22.786Z,98414.28
2023-03-26T19:39:30.886Z,98409.19
2023-03-26T19:42:43.187Z,98406.06
2023-03-26T19:45:28.240Z,98392.72
2023-03-26T19:51:18.805Z,98392.75
2023-03-26T19:51:26.051Z,98383.06
2023-03-26T19:54:01.777Z,98373.84
2023-03-26T19:56:46.120Z,98365.44
2023-03-26T19:59:38.784Z,98364.63
2023-03-26T20:02:24.146Z,98368.00
2023-03-26T20:05:02.380Z,98360.41
2023-03-26T20:07:44.075Z,98358.22
2023-03-26T20:10:29.109Z,98344.16
2023-03-26T20:13:19.685Z,98337.94
2023-03-26T20:16:15.065Z,98334.69
2023-03-26T20:18:56.401Z,98330.06
2023-03-26T20:21:46.059Z,98324.41
2023-03-26T20:24:39.013Z,98315.22
2023-03-26T20:27:26.080Z,98311.44
2023-03-26T20:30:05.818Z,98311.69
2023-03-26T20:32:50.425Z,98299.78
2023-03-26T20:35:54.808Z,98297.91
2023-03-26T20:38:41.155Z,98296.28
2023-03-26T20:41:29.194Z,98291.41
2023-03-26T20:44:15.791Z,98289.81
2023-03-26T20:46:59.213Z,98283.03
2023-03-26T20:49:40.133Z,98280.59
2023-03-26T20:52:23.885Z,98274.38
2023-03-26T20:55:08.092Z,98273.53
2023-03-26T20:57:59.338Z,98257.00
2023-03-26T21:00:44.051Z,98257.56
2023-03-26T21:03:27.219Z,98260.78
2023-03-26T21:06:10.376Z,98247.75
2023-03-26T21:08:52.237Z,98239.66
2023-03-26T21:11:53.150Z,98251.28
2023-03-26T21:15:16.726Z,98248.59
2023-03-26T21:18:03.913Z,98247.25
2023-03-26T21:20:45.147Z,98245.88
2023-03-26T21:23:42.944Z,98248.28
2023-03-26T21:26:32.376Z,98270.88
2023-03-26T21:29:31.964Z,98292.22
2023-03-26T21:32:15.484Z,98294.66
2023-03-26T21:34:59.723Z,98299.50
2023-03-26T21:37:42.767Z,98319.22
2023-03-26T21:40:25.341Z,98298.63
2023-03-26T21:43:10.695Z,98308.16
2023-03-26T21:45:46.682Z,98306.47
2023-03-26T21:48:30.807Z,98309.69
2023-03-26T21:51:13.212Z,98307.19
2023-03-26T21:53:49.030Z,98296.03
2023-03-26T21:56:53.158Z,98288.97
2023-03-26T21:59:51.452Z,98288.25
2023-03-26T22:02:36.409Z,98284.22
2023-03-26T22:05:21.171Z,98282.44
2023-03-26T22:08:19.459Z,98290.59
2023-03-26T22:11:00.406Z,98291.72
2023-03-26T22:13:57.809Z,98279.50
2023-03-26T22:16:41.148Z,98269.75
2023-03-26T22:19:23.511Z,98268.44
2023-03-26T22:22:04.449Z,98264.53
2023-03-26T22:24:54.522Z,98255.31
2023-03-26T22:27:45.197Z,98249.84
2023-03-26T22:30:34.408Z,98238.81
2023-03-26T22:33:12.463Z,98243.41
2023-03-26T22:35:56.204Z,98242.84
2023-03-26T22:38:45.774Z,98228.44
2023-03-26T22:41:44.773Z,98232.47
2023-03-26T22:44:28.681Z,98236.59
2023-03-26T22:47:07.435Z,98238.50
2023-03-26T22:49:58.839Z,98222.47
2023-03-26T22:52:40.682Z,98228.41
2023-03-26T22:55:31.151Z,98219.44
2023-03-26T22:58:16.484Z,98216.94
2023-03-26T23:01:07.910Z,98216.09
2023-03-26T23:03:52.129Z,98210.34
2023-03-26T23:06:39.014Z,98220.06
2023-03-26T23:09:27.910Z,98210.25
2023-03-26T23:12:11.382Z,98217.72
2023-03-26T23:14:54.764Z,98211.50
2023-03-26T23:17:32.976Z,98203.97
2023-03-26T23:20:21.430Z,98202.84
2023-03-26T23:22:54.834Z,98203.03
2023-03-26T23:25:38.362Z,98192.75
2023-03-26T23:28:21.695Z,98188.44
2023-03-26T23:31:12.410Z,98182.44
2023-03-26T23:33:53.231Z,98179.47
2023-03-26T23:36:32.025Z,98174.47
2023-03-26T23:39:19.186Z,98175.03
2023-03-26T23:41:57.246Z,98175.47
2023-03-26T23:44:47.105Z,98171.66
2023-03-26T23:47:34.508Z,98168.75
2023-03-26T23:50:20.798Z,98156.53
2023-03-26T23:52:59.777Z,98160.09
2023-03-26T23:55:40.856Z,98148.69
2023-03-26T23:58:40.491Z,98148.66
